sensor_id;sensor_type;location;lat;lon;timestamp;P1;durP1;ratioP1;P2;durP2;ratioP2
83423;SDS011;73355;49.044;8.686;2024-02-15T00:00:02;3.10;;;0.83;;
83423;SDS011;73355;49.044;8.686;2024-02-15T00:02:28;1.75;;;0.60;;
83423;SDS011;73355;49.044;8.686;2024-02-15T00:04:53;4.73;;;0.80;;
83423;SDS011;73355;49.044;8.686;2024-02-15T00:07:19;2.93;;;0.70;;
83423;SDS011;73355;49.044;8.686;2024-02-15T00:09:47;3.83;;;0.63;;
83423;SDS011;73355;49.044;8.686;2024-02-15T00:12:12;1.40;;;0.55;;
83423;SDS011;73355;49.044;8.686;2024-02-15T00:14:37;2.83;;;0.60;;
83423;SDS011;73355;49.044;8.686;2024-02-15T00:17:03;2.10;;;0.70;;
83423;SDS011;73355;49.044;8.686;2024-02-15T00:19:29;2.05;;;0.70;;
83423;SDS011;73355;49.044;8.686;2024-02-15T00:21:55;1.50;;;0.60;;
83423;SDS011;73355;49.044;8.686;2024-02-15T00:24:21;2.65;;;0.80;;
83423;SDS011;73355;49.044;8.686;2024-02-15T00:26:47;1.75;;;0.65;;
83423;SDS011;73355;49.044;8.686;2024-02-15T00:29:12;2.50;;;0.80;;
83423;SDS011;73355;49.044;8.686;2024-02-15T00:31:38;3.25;;;0.88;;
83423;SDS011;73355;49.044;8.686;2024-02-15T00:34:03;1.60;;;0.77;;
83423;SDS011;73355;49.044;8.686;2024-02-15T00:36:29;3.88;;;0.82;;
83423;SDS011;73355;49.044;8.686;2024-02-15T00:38:54;2.70;;;0.60;;
83423;SDS011;73355;49.044;8.686;2024-02-15T00:41:20;0.95;;;0.52;;
83423;SDS011;73355;49.044;8.686;2024-02-15T00:43:46;3.00;;;0.80;;
83423;SDS011;73355;49.044;8.686;2024-02-15T00:46:11;1.40;;;0.70;;
83423;SDS011;73355;49.044;8.686;2024-02-15T00:48:37;2.00;;;0.70;;
83423;SDS011;73355;49.044;8.686;2024-02-15T00:51:02;2.80;;;0.80;;
83423;SDS011;73355;49.044;8.686;2024-02-15T00:53:28;2.25;;;0.70;;
83423;SDS011;73355;49.044;8.686;2024-02-15T00:55:53;2.17;;;0.80;;
83423;SDS011;73355;49.044;8.686;2024-02-15T00:58:18;1.97;;;0.80;;
83423;SDS011;73355;49.044;8.686;2024-02-15T01:00:44;1.10;;;0.70;;
83423;SDS011;73355;49.044;8.686;2024-02-15T01:03:09;2.87;;;0.90;;
83423;SDS011;73355;49.044;8.686;2024-02-15T01:05:34;2.00;;;0.75;;
83423;SDS011;73355;49.044;8.686;2024-02-15T01:08:00;4.13;;;0.90;;
83423;SDS011;73355;49.044;8.686;2024-02-15T01:10:25;1.42;;;0.80;;
83423;SDS011;73355;49.044;8.686;2024-02-15T01:12:51;2.20;;;0.88;;
83423;SDS011;73355;49.044;8.686;2024-02-15T01:15:17;3.65;;;1.50;;
83423;SDS011;73355;49.044;8.686;2024-02-15T01:17:43;4.50;;;1.98;;
83423;SDS011;73355;49.044;8.686;2024-02-15T01:20:09;4.32;;;1.50;;
83423;SDS011;73355;49.044;8.686;2024-02-15T01:25:00;2.87;;;1.50;;
83423;SDS011;73355;49.044;8.686;2024-02-15T01:27:25;2.87;;;1.40;;
83423;SDS011;73355;49.044;8.686;2024-02-15T01:30:01;4.18;;;1.95;;
83423;SDS011;73355;49.044;8.686;2024-02-15T01:32:26;5.85;;;1.90;;
83423;SDS011;73355;49.044;8.686;2024-02-15T01:34:51;5.30;;;2.13;;
83423;SDS011;73355;49.044;8.686;2024-02-15T01:37:19;6.15;;;2.10;;
83423;SDS011;73355;49.044;8.686;2024-02-15T01:39:45;4.70;;;2.13;;
83423;SDS011;73355;49.044;8.686;2024-02-15T01:42:10;4.93;;;2.13;;
83423;SDS011;73355;49.044;8.686;2024-02-15T01:44:36;5.60;;;2.03;;
83423;SDS011;73355;49.044;8.686;2024-02-15T01:47:01;5.90;;;2.58;;
83423;SDS011;73355;49.044;8.686;2024-02-15T01:49:34;6.18;;;2.25;;
83423;SDS011;73355;49.044;8.686;2024-02-15T01:51:59;4.83;;;1.73;;
83423;SDS011;73355;49.044;8.686;2024-02-15T01:54:27;4.43;;;1.73;;
83423;SDS011;73355;49.044;8.686;2024-02-15T01:56:53;5.32;;;1.70;;
83423;SDS011;73355;49.044;8.686;2024-02-15T01:59:19;5.03;;;1.80;;
83423;SDS011;73355;49.044;8.686;2024-02-15T02:01:47;3.70;;;1.73;;
83423;SDS011;73355;49.044;8.686;2024-02-15T02:04:13;3.13;;;1.40;;
83423;SDS011;73355;49.044;8.686;2024-02-15T02:06:38;3.65;;;1.50;;
83423;SDS011;73355;49.044;8.686;2024-02-15T02:09:04;2.38;;;1.17;;
83423;SDS011;73355;49.044;8.686;2024-02-15T02:11:29;3.35;;;1.30;;
83423;SDS011;73355;49.044;8.686;2024-02-15T02:13:55;3.17;;;1.10;;
83423;SDS011;73355;49.044;8.686;2024-02-15T02:16:24;4.13;;;1.83;;
83423;SDS011;73355;49.044;8.686;2024-02-15T02:18:51;5.22;;;1.95;;
83423;SDS011;73355;49.044;8.686;2024-02-15T02:21:16;5.78;;;2.53;;
83423;SDS011;73355;49.044;8.686;2024-02-15T02:23:42;5.73;;;2.10;;
83423;SDS011;73355;49.044;8.686;2024-02-15T02:26:07;8.13;;;2.75;;
83423;SDS011;73355;49.044;8.686;2024-02-15T02:28:35;5.35;;;2.47;;
83423;SDS011;73355;49.044;8.686;2024-02-15T02:31:01;5.78;;;2.28;;
83423;SDS011;73355;49.044;8.686;2024-02-15T02:33:26;3.90;;;2.10;;
83423;SDS011;73355;49.044;8.686;2024-02-15T02:35:53;4.05;;;2.15;;
83423;SDS011;73355;49.044;8.686;2024-02-15T02:38:18;4.17;;;2.27;;
83423;SDS011;73355;49.044;8.686;2024-02-15T02:40:44;4.03;;;2.03;;
83423;SDS011;73355;49.044;8.686;2024-02-15T02:43:09;4.77;;;1.90;;
83423;SDS011;73355;49.044;8.686;2024-02-15T02:45:34;3.67;;;1.95;;
83423;SDS011;73355;49.044;8.686;2024-02-15T02:48:00;4.20;;;1.50;;
83423;SDS011;73355;49.044;8.686;2024-02-15T02:50:25;3.47;;;1.70;;
83423;SDS011;73355;49.044;8.686;2024-02-15T02:52:51;6.43;;;1.92;;
83423;SDS011;73355;49.044;8.686;2024-02-15T02:55:16;4.35;;;1.55;;
83423;SDS011;73355;49.044;8.686;2024-02-15T02:57:42;4.15;;;1.73;;
83423;SDS011;73355;49.044;8.686;2024-02-15T03:00:09;2.70;;;1.40;;
83423;SDS011;73355;49.044;8.686;2024-02-15T03:02:41;3.47;;;1.70;;
83423;SDS011;73355;49.044;8.686;2024-02-15T03:05:09;4.38;;;1.63;;
83423;SDS011;73355;49.044;8.686;2024-02-15T03:07:36;4.68;;;1.73;;
83423;SDS011;73355;49.044;8.686;2024-02-15T03:10:02;2.58;;;1.73;;
83423;SDS011;73355;49.044;8.686;2024-02-15T03:12:33;2.42;;;1.52;;
83423;SDS011;73355;49.044;8.686;2024-02-15T03:15:00;4.03;;;1.80;;
83423;SDS011;73355;49.044;8.686;2024-02-15T03:17:27;2.50;;;1.45;;
83423;SDS011;73355;49.044;8.686;2024-02-15T03:19:52;3.97;;;1.70;;
83423;SDS011;73355;49.044;8.686;2024-02-15T03:22:17;3.63;;;1.93;;
83423;SDS011;73355;49.044;8.686;2024-02-15T03:24:43;4.10;;;1.90;;
83423;SDS011;73355;49.044;8.686;2024-02-15T03:27:08;3.97;;;1.70;;
83423;SDS011;73355;49.044;8.686;2024-02-15T03:29:37;2.85;;;1.70;;
83423;SDS011;73355;49.044;8.686;2024-02-15T03:32:02;3.83;;;1.53;;
83423;SDS011;73355;49.044;8.686;2024-02-15T03:34:29;5.47;;;2.33;;
83423;SDS011;73355;49.044;8.686;2024-02-15T03:36:54;4.72;;;1.77;;
83423;SDS011;73355;49.044;8.686;2024-02-15T03:39:20;5.70;;;1.80;;
83423;SDS011;73355;49.044;8.686;2024-02-15T03:41:45;3.53;;;1.90;;
83423;SDS011;73355;49.044;8.686;2024-02-15T03:44:13;3.75;;;1.83;;
83423;SDS011;73355;49.044;8.686;2024-02-15T03:46:39;4.75;;;2.00;;
83423;SDS011;73355;49.044;8.686;2024-02-15T03:49:05;5.15;;;1.80;;
83423;SDS011;73355;49.044;8.686;2024-02-15T03:51:31;5.88;;;1.90;;
83423;SDS011;73355;49.044;8.686;2024-02-15T03:53:57;4.22;;;2.40;;
83423;SDS011;73355;49.044;8.686;2024-02-15T03:56:23;5.20;;;2.03;;
83423;SDS011;73355;49.044;8.686;2024-02-15T03:58:56;4.60;;;1.60;;
83423;SDS011;73355;49.044;8.686;2024-02-15T04:01:22;4.20;;;1.65;;
83423;SDS011;73355;49.044;8.686;2024-02-15T04:03:47;4.73;;;2.10;;
83423;SDS011;73355;49.044;8.686;2024-02-15T04:06:12;3.37;;;1.43;;
83423;SDS011;73355;49.044;8.686;2024-02-15T04:08:38;4.13;;;1.63;;
83423;SDS011;73355;49.044;8.686;2024-02-15T04:11:04;5.40;;;1.63;;
83423;SDS011;73355;49.044;8.686;2024-02-15T04:13:32;3.63;;;1.55;;
83423;SDS011;73355;49.044;8.686;2024-02-15T04:15:57;3.05;;;1.58;;
83423;SDS011;73355;49.044;8.686;2024-02-15T04:18:23;3.40;;;1.43;;
83423;SDS011;73355;49.044;8.686;2024-02-15T04:20:48;4.33;;;1.73;;
83423;SDS011;73355;49.044;8.686;2024-02-15T04:23:14;2.95;;;1.75;;
83423;SDS011;73355;49.044;8.686;2024-02-15T04:25:39;2.87;;;1.43;;
83423;SDS011;73355;49.044;8.686;2024-02-15T04:28:05;3.88;;;1.58;;
83423;SDS011;73355;49.044;8.686;2024-02-15T04:30:31;3.10;;;1.50;;
83423;SDS011;73355;49.044;8.686;2024-02-15T04:32:57;4.03;;;1.27;;
83423;SDS011;73355;49.044;8.686;2024-02-15T04:35:22;3.92;;;1.27;;
83423;SDS011;73355;49.044;8.686;2024-02-15T04:37:48;3.53;;;1.60;;
83423;SDS011;73355;49.044;8.686;2024-02-15T04:40:14;5.10;;;1.30;;
83423;SDS011;73355;49.044;8.686;2024-02-15T04:42:39;2.78;;;1.30;;
83423;SDS011;73355;49.044;8.686;2024-02-15T04:45:06;3.67;;;1.30;;
83423;SDS011;73355;49.044;8.686;2024-02-15T04:47:37;2.70;;;1.30;;
83423;SDS011;73355;49.044;8.686;2024-02-15T04:50:03;5.13;;;1.60;;
83423;SDS011;73355;49.044;8.686;2024-02-15T04:52:31;3.30;;;1.20;;
83423;SDS011;73355;49.044;8.686;2024-02-15T04:54:56;2.80;;;0.93;;
83423;SDS011;73355;49.044;8.686;2024-02-15T04:57:23;1.85;;;0.90;;
83423;SDS011;73355;49.044;8.686;2024-02-15T04:59:50;2.85;;;1.10;;
83423;SDS011;73355;49.044;8.686;2024-02-15T05:02:16;2.53;;;1.20;;
83423;SDS011;73355;49.044;8.686;2024-02-15T05:04:42;2.72;;;1.02;;
83423;SDS011;73355;49.044;8.686;2024-02-15T05:07:08;2.57;;;0.97;;
83423;SDS011;73355;49.044;8.686;2024-02-15T05:09:34;1.50;;;0.93;;
83423;SDS011;73355;49.044;8.686;2024-02-15T05:12:00;1.50;;;0.80;;
83423;SDS011;73355;49.044;8.686;2024-02-15T05:14:27;3.13;;;1.10;;
83423;SDS011;73355;49.044;8.686;2024-02-15T05:16:53;2.05;;;0.70;;
83423;SDS011;73355;49.044;8.686;2024-02-15T05:19:18;1.80;;;0.90;;
83423;SDS011;73355;49.044;8.686;2024-02-15T05:21:44;2.93;;;1.20;;
83423;SDS011;73355;49.044;8.686;2024-02-15T05:24:12;3.30;;;0.90;;
83423;SDS011;73355;49.044;8.686;2024-02-15T05:26:38;2.55;;;0.80;;
83423;SDS011;73355;49.044;8.686;2024-02-15T05:29:04;2.63;;;1.00;;
83423;SDS011;73355;49.044;8.686;2024-02-15T05:31:30;2.97;;;1.30;;
83423;SDS011;73355;49.044;8.686;2024-02-15T05:33:55;6.57;;;1.23;;
83423;SDS011;73355;49.044;8.686;2024-02-15T05:36:20;2.40;;;1.10;;
83423;SDS011;73355;49.044;8.686;2024-02-15T05:38:47;4.25;;;1.08;;
83423;SDS011;73355;49.044;8.686;2024-02-15T05:41:14;2.63;;;0.90;;
83423;SDS011;73355;49.044;8.686;2024-02-15T05:43:39;2.90;;;0.90;;
83423;SDS011;73355;49.044;8.686;2024-02-15T05:46:07;1.90;;;1.00;;
83423;SDS011;73355;49.044;8.686;2024-02-15T05:48:33;2.38;;;1.20;;
83423;SDS011;73355;49.044;8.686;2024-02-15T05:51:00;2.90;;;1.10;;
83423;SDS011;73355;49.044;8.686;2024-02-15T05:55:51;2.67;;;1.00;;
83423;SDS011;73355;49.044;8.686;2024-02-15T05:58:17;2.70;;;0.98;;
83423;SDS011;73355;49.044;8.686;2024-02-15T06:00:42;1.70;;;0.90;;
83423;SDS011;73355;49.044;8.686;2024-02-15T06:03:12;2.88;;;1.20;;
83423;SDS011;73355;49.044;8.686;2024-02-15T06:05:37;4.53;;;1.40;;
83423;SDS011;73355;49.044;8.686;2024-02-15T06:08:03;2.50;;;0.90;;
83423;SDS011;73355;49.044;8.686;2024-02-15T06:10:29;2.83;;;1.08;;
83423;SDS011;73355;49.044;8.686;2024-02-15T06:12:55;2.10;;;1.20;;
83423;SDS011;73355;49.044;8.686;2024-02-15T06:15:21;2.50;;;0.90;;
83423;SDS011;73355;49.044;8.686;2024-02-15T06:17:48;3.15;;;1.00;;
83423;SDS011;73355;49.044;8.686;2024-02-15T06:20:14;1.77;;;1.00;;
83423;SDS011;73355;49.044;8.686;2024-02-15T06:22:42;1.52;;;1.00;;
83423;SDS011;73355;49.044;8.686;2024-02-15T06:25:08;2.42;;;1.13;;
83423;SDS011;73355;49.044;8.686;2024-02-15T06:27:35;3.33;;;1.10;;
83423;SDS011;73355;49.044;8.686;2024-02-15T06:30:05;2.30;;;1.10;;
83423;SDS011;73355;49.044;8.686;2024-02-15T06:32:50;4.82;;;1.20;;
83423;SDS011;73355;49.044;8.686;2024-02-15T06:35:33;2.78;;;1.30;;
83423;SDS011;73355;49.044;8.686;2024-02-15T06:38:17;4.15;;;1.30;;
83423;SDS011;73355;49.044;8.686;2024-02-15T06:41:01;2.15;;;1.10;;
83423;SDS011;73355;49.044;8.686;2024-02-15T06:43:26;2.75;;;1.10;;
83423;SDS011;73355;49.044;8.686;2024-02-15T06:45:52;3.43;;;0.90;;
83423;SDS011;73355;49.044;8.686;2024-02-15T06:48:17;2.10;;;1.00;;
83423;SDS011;73355;49.044;8.686;2024-02-15T06:50:42;2.93;;;1.20;;
83423;SDS011;73355;49.044;8.686;2024-02-15T06:53:07;2.07;;;1.10;;
83423;SDS011;73355;49.044;8.686;2024-02-15T06:55:33;3.58;;;1.45;;
83423;SDS011;73355;49.044;8.686;2024-02-15T06:57:58;3.30;;;1.10;;
83423;SDS011;73355;49.044;8.686;2024-02-15T07:00:24;3.30;;;1.20;;
83423;SDS011;73355;49.044;8.686;2024-02-15T07:02:49;2.28;;;0.93;;
83423;SDS011;73355;49.044;8.686;2024-02-15T07:05:15;2.27;;;1.10;;
83423;SDS011;73355;49.044;8.686;2024-02-15T07:07:42;1.75;;;0.90;;
83423;SDS011;73355;49.044;8.686;2024-02-15T07:10:08;2.83;;;0.88;;
83423;SDS011;73355;49.044;8.686;2024-02-15T07:12:34;2.58;;;1.08;;
83423;SDS011;73355;49.044;8.686;2024-02-15T07:15:00;6.53;;;1.10;;
83423;SDS011;73355;49.044;8.686;2024-02-15T07:17:28;3.22;;;1.15;;
83423;SDS011;73355;49.044;8.686;2024-02-15T07:19:54;1.55;;;0.90;;
83423;SDS011;73355;49.044;8.686;2024-02-15T07:22:20;2.33;;;0.73;;
83423;SDS011;73355;49.044;8.686;2024-02-15T07:27:11;3.47;;;1.00;;
83423;SDS011;73355;49.044;8.686;2024-02-15T07:29:36;3.00;;;0.97;;
83423;SDS011;73355;49.044;8.686;2024-02-15T07:32:05;3.58;;;0.95;;
83423;SDS011;73355;49.044;8.686;2024-02-15T07:34:31;2.38;;;0.80;;
83423;SDS011;73355;49.044;8.686;2024-02-15T07:36:57;1.55;;;0.88;;
83423;SDS011;73355;49.044;8.686;2024-02-15T07:39:23;2.80;;;0.90;;
83423;SDS011;73355;49.044;8.686;2024-02-15T07:41:50;1.45;;;0.70;;
83423;SDS011;73355;49.044;8.686;2024-02-15T07:44:16;2.22;;;0.88;;
83423;SDS011;73355;49.044;8.686;2024-02-15T07:46:42;2.78;;;0.90;;
83423;SDS011;73355;49.044;8.686;2024-02-15T07:49:15;3.75;;;1.20;;
83423;SDS011;73355;49.044;8.686;2024-02-15T07:51:42;3.83;;;1.60;;
83423;SDS011;73355;49.044;8.686;2024-02-15T07:54:08;4.20;;;1.00;;
83423;SDS011;73355;49.044;8.686;2024-02-15T07:56:33;2.20;;;0.90;;
83423;SDS011;73355;49.044;8.686;2024-02-15T08:01:25;3.03;;;1.10;;
83423;SDS011;73355;49.044;8.686;2024-02-15T08:03:50;2.47;;;1.00;;
83423;SDS011;73355;49.044;8.686;2024-02-15T08:06:17;3.53;;;1.10;;
83423;SDS011;73355;49.044;8.686;2024-02-15T08:08:43;5.22;;;1.20;;
83423;SDS011;73355;49.044;8.686;2024-02-15T08:11:15;3.03;;;1.38;;
83423;SDS011;73355;49.044;8.686;2024-02-15T08:13:44;5.18;;;1.40;;
83423;SDS011;73355;49.044;8.686;2024-02-15T08:16:19;4.20;;;1.33;;
83423;SDS011;73355;49.044;8.686;2024-02-15T08:18:49;3.60;;;1.30;;
83423;SDS011;73355;49.044;8.686;2024-02-15T08:21:17;3.00;;;1.00;;
83423;SDS011;73355;49.044;8.686;2024-02-15T08:23:44;5.38;;;1.20;;
83423;SDS011;73355;49.044;8.686;2024-02-15T08:26:09;3.43;;;1.23;;
83423;SDS011;73355;49.044;8.686;2024-02-15T08:28:38;4.18;;;1.10;;
83423;SDS011;73355;49.044;8.686;2024-02-15T08:31:03;2.42;;;0.90;;
83423;SDS011;73355;49.044;8.686;2024-02-15T08:33:29;2.35;;;0.93;;
83423;SDS011;73355;49.044;8.686;2024-02-15T08:35:55;3.58;;;0.93;;
83423;SDS011;73355;49.044;8.686;2024-02-15T08:38:23;2.53;;;0.95;;
83423;SDS011;73355;49.044;8.686;2024-02-15T08:40:48;4.18;;;1.40;;
83423;SDS011;73355;49.044;8.686;2024-02-15T08:43:14;3.58;;;1.17;;
83423;SDS011;73355;49.044;8.686;2024-02-15T08:45:43;7.13;;;2.45;;
83423;SDS011;73355;49.044;8.686;2024-02-15T08:48:08;5.40;;;1.70;;
83423;SDS011;73355;49.044;8.686;2024-02-15T08:50:34;2.78;;;1.67;;
83423;SDS011;73355;49.044;8.686;2024-02-15T08:52:59;12.73;;;4.28;;
83423;SDS011;73355;49.044;8.686;2024-02-15T08:55:25;7.95;;;3.22;;
83423;SDS011;73355;49.044;8.686;2024-02-15T08:57:52;8.10;;;3.08;;
83423;SDS011;73355;49.044;8.686;2024-02-15T09:00:19;6.28;;;1.98;;
83423;SDS011;73355;49.044;8.686;2024-02-15T09:05:10;6.63;;;1.90;;
83423;SDS011;73355;49.044;8.686;2024-02-15T09:07:39;7.90;;;3.00;;
83423;SDS011;73355;49.044;8.686;2024-02-15T09:10:08;9.75;;;4.88;;
83423;SDS011;73355;49.044;8.686;2024-02-15T09:12:35;4.55;;;2.15;;
83423;SDS011;73355;49.044;8.686;2024-02-15T09:15:04;3.03;;;1.73;;
83423;SDS011;73355;49.044;8.686;2024-02-15T09:19:57;3.72;;;0.75;;
83423;SDS011;73355;49.044;8.686;2024-02-15T09:24:48;3.17;;;0.90;;
83423;SDS011;73355;49.044;8.686;2024-02-15T09:27:14;2.93;;;0.90;;
83423;SDS011;73355;49.044;8.686;2024-02-15T09:29:39;4.27;;;1.50;;
83423;SDS011;73355;49.044;8.686;2024-02-15T09:32:05;6.28;;;2.45;;
83423;SDS011;73355;49.044;8.686;2024-02-15T09:34:31;11.95;;;4.93;;
83423;SDS011;73355;49.044;8.686;2024-02-15T09:36:57;6.40;;;3.10;;
83423;SDS011;73355;49.044;8.686;2024-02-15T09:39:23;4.87;;;2.87;;
83423;SDS011;73355;49.044;8.686;2024-02-15T09:41:48;1.23;;;0.60;;
83423;SDS011;73355;49.044;8.686;2024-02-15T09:44:20;3.58;;;1.00;;
83423;SDS011;73355;49.044;8.686;2024-02-15T09:46:46;3.53;;;1.10;;
83423;SDS011;73355;49.044;8.686;2024-02-15T09:49:15;4.22;;;1.48;;
83423;SDS011;73355;49.044;8.686;2024-02-15T09:51:40;3.65;;;1.60;;
83423;SDS011;73355;49.044;8.686;2024-02-15T09:54:07;3.88;;;1.05;;
83423;SDS011;73355;49.044;8.686;2024-02-15T09:56:34;2.35;;;0.98;;
83423;SDS011;73355;49.044;8.686;2024-02-15T09:59:00;2.60;;;1.20;;
83423;SDS011;73355;49.044;8.686;2024-02-15T10:01:26;1.73;;;0.85;;
83423;SDS011;73355;49.044;8.686;2024-02-15T10:03:55;2.63;;;0.68;;
83423;SDS011;73355;49.044;8.686;2024-02-15T10:06:24;2.60;;;0.80;;
83423;SDS011;73355;49.044;8.686;2024-02-15T10:08:50;2.35;;;0.70;;
83423;SDS011;73355;49.044;8.686;2024-02-15T10:11:22;4.45;;;0.90;;
83423;SDS011;73355;49.044;8.686;2024-02-15T10:13:47;2.70;;;0.80;;
83423;SDS011;73355;49.044;8.686;2024-02-15T10:16:16;2.57;;;0.70;;
83423;SDS011;73355;49.044;8.686;2024-02-15T10:18:43;1.52;;;0.60;;
83423;SDS011;73355;49.044;8.686;2024-02-15T10:21:09;3.38;;;0.88;;
83423;SDS011;73355;49.044;8.686;2024-02-15T10:23:36;1.60;;;0.70;;
83423;SDS011;73355;49.044;8.686;2024-02-15T10:26:03;1.10;;;0.60;;
83423;SDS011;73355;49.044;8.686;2024-02-15T10:28:44;1.48;;;0.75;;
83423;SDS011;73355;49.044;8.686;2024-02-15T10:33:37;3.13;;;0.70;;
83423;SDS011;73355;49.044;8.686;2024-02-15T10:36:06;2.93;;;0.70;;
83423;SDS011;73355;49.044;8.686;2024-02-15T10:38:36;2.78;;;0.50;;
83423;SDS011;73355;49.044;8.686;2024-02-15T10:41:02;1.30;;;0.83;;
83423;SDS011;73355;49.044;8.686;2024-02-15T10:43:35;2.13;;;0.70;;
83423;SDS011;73355;49.044;8.686;2024-02-15T10:48:29;2.35;;;0.60;;
83423;SDS011;73355;49.044;8.686;2024-02-15T10:51:01;1.90;;;0.53;;
83423;SDS011;73355;49.044;8.686;2024-02-15T10:53:33;2.40;;;0.55;;
83423;SDS011;73355;49.044;8.686;2024-02-15T10:56:19;1.42;;;0.60;;
83423;SDS011;73355;49.044;8.686;2024-02-15T10:58:55;2.85;;;0.68;;
83423;SDS011;73355;49.044;8.686;2024-02-15T11:01:29;2.30;;;0.55;;
83423;SDS011;73355;49.044;8.686;2024-02-15T11:03:59;2.17;;;0.68;;
83423;SDS011;73355;49.044;8.686;2024-02-15T11:06:33;1.92;;;0.57;;
83423;SDS011;73355;49.044;8.686;2024-02-15T11:09:03;1.85;;;0.50;;
83423;SDS011;73355;49.044;8.686;2024-02-15T11:11:31;1.80;;;0.63;;
83423;SDS011;73355;49.044;8.686;2024-02-15T11:16:51;1.15;;;0.57;;
83423;SDS011;73355;49.044;8.686;2024-02-15T11:20:01;2.50;;;0.90;;
83423;SDS011;73355;49.044;8.686;2024-02-15T11:22:23;0.65;;;0.50;;
83423;SDS011;73355;49.044;8.686;2024-02-15T11:24:49;1.92;;;0.52;;
83423;SDS011;73355;49.044;8.686;2024-02-15T11:27:23;1.42;;;0.60;;
83423;SDS011;73355;49.044;8.686;2024-02-15T11:29:52;2.28;;;0.70;;
83423;SDS011;73355;49.044;8.686;2024-02-15T11:40:13;1.60;;;0.60;;
83423;SDS011;73355;49.044;8.686;2024-02-15T11:42:51;1.35;;;0.63;;
83423;SDS011;73355;49.044;8.686;2024-02-15T11:45:23;1.50;;;0.68;;
83423;SDS011;73355;49.044;8.686;2024-02-15T11:47:50;1.85;;;0.70;;
83423;SDS011;73355;49.044;8.686;2024-02-15T11:50:18;2.75;;;1.35;;
83423;SDS011;73355;49.044;8.686;2024-02-15T11:52:45;2.10;;;0.55;;
83423;SDS011;73355;49.044;8.686;2024-02-15T11:55:11;2.33;;;0.82;;
83423;SDS011;73355;49.044;8.686;2024-02-15T11:57:41;1.80;;;0.70;;
83423;SDS011;73355;49.044;8.686;2024-02-15T12:00:22;2.40;;;0.80;;
83423;SDS011;73355;49.044;8.686;2024-02-15T12:03:07;1.83;;;0.60;;
83423;SDS011;73355;49.044;8.686;2024-02-15T12:05:52;2.25;;;0.60;;
83423;SDS011;73355;49.044;8.686;2024-02-15T12:08:37;2.80;;;0.75;;
83423;SDS011;73355;49.044;8.686;2024-02-15T12:11:21;1.50;;;0.50;;
83423;SDS011;73355;49.044;8.686;2024-02-15T12:14:05;2.78;;;0.80;;
83423;SDS011;73355;49.044;8.686;2024-02-15T12:17:05;2.00;;;0.70;;
83423;SDS011;73355;49.044;8.686;2024-02-15T12:19:51;1.98;;;0.70;;
83423;SDS011;73355;49.044;8.686;2024-02-15T12:22:22;1.45;;;0.65;;
83423;SDS011;73355;49.044;8.686;2024-02-15T12:25:07;1.90;;;0.50;;
83423;SDS011;73355;49.044;8.686;2024-02-15T12:27:39;1.60;;;0.50;;
83423;SDS011;73355;49.044;8.686;2024-02-15T12:30:08;1.77;;;0.60;;
83423;SDS011;73355;49.044;8.686;2024-02-15T12:32:47;1.17;;;0.55;;
83423;SDS011;73355;49.044;8.686;2024-02-15T12:35:15;4.63;;;0.70;;
83423;SDS011;73355;49.044;8.686;2024-02-15T12:38:02;2.25;;;0.60;;
83423;SDS011;73355;49.044;8.686;2024-02-15T12:40:34;1.75;;;0.70;;
83423;SDS011;73355;49.044;8.686;2024-02-15T12:43:06;1.05;;;0.57;;
83423;SDS011;73355;49.044;8.686;2024-02-15T12:45:38;2.08;;;0.57;;
83423;SDS011;73355;49.044;8.686;2024-02-15T12:48:05;1.90;;;0.73;;
83423;SDS011;73355;49.044;8.686;2024-02-15T12:50:31;2.47;;;0.60;;
83423;SDS011;73355;49.044;8.686;2024-02-15T12:52:57;2.65;;;0.60;;
83423;SDS011;73355;49.044;8.686;2024-02-15T12:55:29;4.47;;;0.80;;
83423;SDS011;73355;49.044;8.686;2024-02-15T12:58:02;1.98;;;0.52;;
83423;SDS011;73355;49.044;8.686;2024-02-15T13:00:29;2.35;;;0.70;;
83423;SDS011;73355;49.044;8.686;2024-02-15T13:03:01;2.00;;;0.55;;
83423;SDS011;73355;49.044;8.686;2024-02-15T13:05:29;2.42;;;0.73;;
83423;SDS011;73355;49.044;8.686;2024-02-15T13:07:55;2.95;;;0.75;;
83423;SDS011;73355;49.044;8.686;2024-02-15T13:10:27;1.67;;;0.60;;
83423;SDS011;73355;49.044;8.686;2024-02-15T13:12:53;1.70;;;0.60;;
83423;SDS011;73355;49.044;8.686;2024-02-15T13:15:20;3.10;;;0.93;;
83423;SDS011;73355;49.044;8.686;2024-02-15T13:17:47;1.85;;;0.80;;
83423;SDS011;73355;49.044;8.686;2024-02-15T13:20:25;1.50;;;0.70;;
83423;SDS011;73355;49.044;8.686;2024-02-15T13:22:57;1.50;;;0.75;;
83423;SDS011;73355;49.044;8.686;2024-02-15T13:25:47;1.23;;;0.50;;
83423;SDS011;73355;49.044;8.686;2024-02-15T13:28:14;1.10;;;0.45;;
83423;SDS011;73355;49.044;8.686;2024-02-15T13:30:40;0.63;;;0.50;;
83423;SDS011;73355;49.044;8.686;2024-02-15T13:33:06;1.80;;;0.50;;
83423;SDS011;73355;49.044;8.686;2024-02-15T13:35:32;1.67;;;0.70;;
83423;SDS011;73355;49.044;8.686;2024-02-15T13:37:57;3.03;;;0.70;;
83423;SDS011;73355;49.044;8.686;2024-02-15T13:40:24;0.95;;;0.43;;
83423;SDS011;73355;49.044;8.686;2024-02-15T13:42:53;1.27;;;0.50;;
83423;SDS011;73355;49.044;8.686;2024-02-15T13:45:32;1.13;;;0.50;;
83423;SDS011;73355;49.044;8.686;2024-02-15T13:48:10;2.72;;;0.70;;
83423;SDS011;73355;49.044;8.686;2024-02-15T13:50:38;1.65;;;0.60;;
83423;SDS011;73355;49.044;8.686;2024-02-15T13:53:03;2.28;;;0.60;;
83423;SDS011;73355;49.044;8.686;2024-02-15T13:55:29;1.17;;;0.50;;
83423;SDS011;73355;49.044;8.686;2024-02-15T14:00:25;1.30;;;0.50;;
83423;SDS011;73355;49.044;8.686;2024-02-15T14:02:58;1.55;;;0.60;;
83423;SDS011;73355;49.044;8.686;2024-02-15T14:05:27;2.65;;;0.63;;
83423;SDS011;73355;49.044;8.686;2024-02-15T14:07:55;2.35;;;0.60;;
83423;SDS011;73355;49.044;8.686;2024-02-15T14:10:22;0.90;;;0.47;;
83423;SDS011;73355;49.044;8.686;2024-02-15T14:12:49;1.35;;;0.68;;
83423;SDS011;73355;49.044;8.686;2024-02-15T14:15:18;2.63;;;0.60;;
83423;SDS011;73355;49.044;8.686;2024-02-15T14:17:44;2.22;;;0.70;;
83423;SDS011;73355;49.044;8.686;2024-02-15T14:20:10;2.15;;;0.52;;
83423;SDS011;73355;49.044;8.686;2024-02-15T14:22:41;1.20;;;0.60;;
83423;SDS011;73355;49.044;8.686;2024-02-15T14:25:14;3.17;;;0.70;;
83423;SDS011;73355;49.044;8.686;2024-02-15T14:27:42;1.20;;;0.75;;
83423;SDS011;73355;49.044;8.686;2024-02-15T14:30:08;1.65;;;0.68;;
83423;SDS011;73355;49.044;8.686;2024-02-15T14:32:52;2.15;;;0.75;;
83423;SDS011;73355;49.044;8.686;2024-02-15T14:35:30;1.65;;;0.50;;
83423;SDS011;73355;49.044;8.686;2024-02-15T14:38:00;4.05;;;0.60;;
83423;SDS011;73355;49.044;8.686;2024-02-15T14:40:31;1.83;;;0.60;;
83423;SDS011;73355;49.044;8.686;2024-02-15T14:42:58;0.90;;;0.50;;
83423;SDS011;73355;49.044;8.686;2024-02-15T14:45:24;2.88;;;0.60;;
83423;SDS011;73355;49.044;8.686;2024-02-15T14:50:15;0.90;;;0.40;;
83423;SDS011;73355;49.044;8.686;2024-02-15T14:52:40;3.20;;;0.60;;
83423;SDS011;73355;49.044;8.686;2024-02-15T14:57:35;1.23;;;0.60;;
83423;SDS011;73355;49.044;8.686;2024-02-15T15:00:02;1.65;;;0.60;;
83423;SDS011;73355;49.044;8.686;2024-02-15T15:02:29;1.42;;;0.60;;
83423;SDS011;73355;49.044;8.686;2024-02-15T15:07:39;1.73;;;0.70;;
83423;SDS011;73355;49.044;8.686;2024-02-15T15:10:23;3.88;;;0.80;;
83423;SDS011;73355;49.044;8.686;2024-02-15T15:15:34;2.20;;;0.80;;
83423;SDS011;73355;49.044;8.686;2024-02-15T15:20:25;2.47;;;0.77;;
83423;SDS011;73355;49.044;8.686;2024-02-15T15:22:51;2.78;;;0.90;;
83423;SDS011;73355;49.044;8.686;2024-02-15T15:25:17;1.85;;;0.80;;
83423;SDS011;73355;49.044;8.686;2024-02-15T15:30:29;2.63;;;1.02;;
83423;SDS011;73355;49.044;8.686;2024-02-15T15:32:55;1.88;;;0.77;;
83423;SDS011;73355;49.044;8.686;2024-02-15T15:35:22;2.65;;;0.88;;
83423;SDS011;73355;49.044;8.686;2024-02-15T15:37:48;1.40;;;0.90;;
83423;SDS011;73355;49.044;8.686;2024-02-15T15:40:15;2.13;;;1.00;;
83423;SDS011;73355;49.044;8.686;2024-02-15T15:42:41;2.08;;;1.00;;